createdAt,value
2018-09-27T00:01:44.325Z,3.97
2018-09-27T00:04:12.704Z,5.63
2018-09-27T00:06:41.127Z,4.40
2018-09-27T00:09:09.529Z,5.43
2018-09-27T00:11:37.841Z,4.13
2018-09-27T00:14:06.129Z,5.43
2018-09-27T00:16:34.410Z,3.27
2018-09-27T00:19:02.697Z,5.97
2018-09-27T00:21:30.982Z,6.33
2018-09-27T00:23:59.330Z,4.87
2018-09-27T00:26:27.695Z,4.90
2018-09-27T00:28:55.983Z,5.50
2018-09-27T00:31:24.258Z,5.17
2018-09-27T00:33:52.523Z,5.47
2018-09-27T00:36:20.930Z,4.07
2018-09-27T00:38:49.226Z,5.97
2018-09-27T00:41:17.528Z,5.63
2018-09-27T00:43:45.865Z,5.53
2018-09-27T00:46:14.286Z,9.20
2018-09-27T00:48:42.560Z,7.07
2018-09-27T00:51:10.895Z,9.93
2018-09-27T00:53:39.172Z,7.23
2018-09-27T00:56:07.474Z,6.03
2018-09-27T00:58:35.738Z,6.23
2018-09-27T01:01:04.017Z,5.50
2018-09-27T01:03:32.387Z,8.73
2018-09-27T01:06:00.773Z,5.27
2018-09-27T01:08:29.040Z,4.73
2018-09-27T01:10:57.425Z,6.40
2018-09-27T01:13:25.808Z,6.37
2018-09-27T01:15:54.117Z,4.53
2018-09-27T01:18:22.404Z,4.57
2018-09-27T01:20:50.940Z,5.63
2018-09-27T01:23:19.306Z,5.17
2018-09-27T01:25:47.630Z,5.50
2018-09-27T01:28:15.899Z,5.03
2018-09-27T01:30:44.246Z,4.53
2018-09-27T01:33:12.515Z,6.50
2018-09-27T01:35:40.858Z,8.07
2018-09-27T01:38:09.141Z,5.87
2018-09-27T01:40:37.418Z,7.73
2018-09-27T01:43:05.777Z,5.70
2018-09-27T01:45:34.111Z,3.63
2018-09-27T01:48:02.400Z,4.20
2018-09-27T01:50:30.704Z,9.13
2018-09-27T01:52:58.989Z,5.80
2018-09-27T01:55:27.339Z,4.70
2018-09-27T01:57:55.646Z,5.43
2018-09-27T02:00:24.014Z,13.63
2018-09-27T02:02:52.367Z,6.93
2018-09-27T02:05:20.699Z,4.07
2018-09-27T02:07:48.978Z,6.80
2018-09-27T02:10:17.275Z,6.00
2018-09-27T02:12:45.581Z,5.13
2018-09-27T02:15:13.967Z,4.90
2018-09-27T02:17:42.550Z,7.87
2018-09-27T02:20:10.849Z,4.93
2018-09-27T02:22:39.138Z,7.73
2018-09-27T02:25:07.822Z,6.40
2018-09-27T02:27:36.137Z,7.13
2018-09-27T02:30:04.432Z,6.93
2018-09-27T02:32:32.952Z,5.53
2018-09-27T02:35:01.232Z,6.43
2018-09-27T02:37:29.522Z,8.83
2018-09-27T02:39:57.818Z,6.67
2018-09-27T02:42:26.160Z,6.17
2018-09-27T02:44:54.529Z,4.33
2018-09-27T02:47:22.825Z,5.27
2018-09-27T02:49:51.118Z,8.10
2018-09-27T02:52:19.485Z,5.70
2018-09-27T02:54:47.767Z,4.00
2018-09-27T02:57:16.084Z,3.67
2018-09-27T02:59:44.390Z,5.30
2018-09-27T03:02:12.678Z,7.50
2018-09-27T03:04:40.947Z,4.50
2018-09-27T03:07:09.230Z,5.27
2018-09-27T03:09:37.618Z,5.57
2018-09-27T03:12:05.918Z,5.77
2018-09-27T03:14:34.204Z,5.77
2018-09-27T03:17:02.544Z,10.23
2018-09-27T03:19:30.827Z,6.87
2018-09-27T03:21:59.120Z,11.77
2018-09-27T03:24:27.386Z,6.37
2018-09-27T03:26:55.674Z,7.77
2018-09-27T03:29:24.045Z,5.47
2018-09-27T03:31:52.344Z,11.17
2018-09-27T03:34:20.625Z,8.17
2018-09-27T03:36:48.911Z,10.37
2018-09-27T03:39:17.189Z,9.90
2018-09-27T03:41:45.518Z,7.17
2018-09-27T03:44:13.892Z,6.00
2018-09-27T03:46:42.225Z,7.67
2018-09-27T03:49:10.492Z,9.70
2018-09-27T03:51:38.777Z,9.03
2018-09-27T03:54:07.109Z,7.00
2018-09-27T03:56:35.488Z,5.67
2018-09-27T03:59:04.071Z,11.60
2018-09-27T04:01:32.458Z,9.87
2018-09-27T04:04:00.756Z,6.50
2018-09-27T04:06:29.111Z,6.17
2018-09-27T04:08:57.413Z,7.87
2018-09-27T04:11:25.687Z,6.73
2018-09-27T04:13:54.016Z,8.10
2018-09-27T04:16:22.525Z,9.67
2018-09-27T04:18:50.839Z,10.80
2018-09-27T04:21:19.153Z,10.23
2018-09-27T04:23:47.490Z,8.73
2018-09-27T04:26:15.772Z,10.30
2018-09-27T04:28:44.077Z,10.43
2018-09-27T04:31:12.366Z,6.97
2018-09-27T04:33:40.664Z,10.40
2018-09-27T04:36:08.958Z,12.00
2018-09-27T04:38:37.310Z,16.67
2018-09-27T04:41:05.689Z,10.90
2018-09-27T04:43:34.113Z,7.93
2018-09-27T04:46:02.618Z,13.40
2018-09-27T04:48:30.914Z,8.83
2018-09-27T04:50:59.205Z,9.30
2018-09-27T04:53:27.539Z,9.83
2018-09-27T04:55:55.926Z,9.77
2018-09-27T04:58:24.297Z,7.27
2018-09-27T05:00:52.643Z,13.20
2018-09-27T05:03:20.953Z,7.63
2018-09-27T05:05:49.233Z,9.50
2018-09-27T05:08:17.564Z,10.07
2018-09-27T05:10:46.310Z,7.20
2018-09-27T05:13:15.015Z,10.37
2018-09-27T05:15:43.372Z,10.10
2018-09-27T05:18:11.621Z,13.70
2018-09-27T05:20:39.996Z,6.77
2018-09-27T05:23:08.375Z,9.23
2018-09-27T05:25:36.753Z,6.20
2018-09-27T05:28:05.100Z,10.20
2018-09-27T05:30:33.426Z,7.13
2018-09-27T05:33:01.793Z,10.13
2018-09-27T05:35:30.080Z,7.60
2018-09-27T05:37:58.343Z,8.33
2018-09-27T05:40:26.663Z,7.17
2018-09-27T05:42:54.997Z,12.17
2018-09-27T05:45:23.308Z,10.50
2018-09-27T05:47:51.704Z,7.47
2018-09-27T05:50:20.137Z,7.27
2018-09-27T05:52:48.394Z,10.33
2018-09-27T05:55:16.705Z,6.87
2018-09-27T05:57:44.981Z,8.47
2018-09-27T06:00:13.314Z,10.80
2018-09-27T06:02:41.635Z,7.83
2018-09-27T06:05:10.020Z,8.10
2018-09-27T06:07:38.295Z,8.70
2018-09-27T06:10:06.631Z,9.07
2018-09-27T06:12:34.905Z,8.80
2018-09-27T06:15:03.181Z,9.53
2018-09-27T06:17:31.600Z,7.63
2018-09-27T06:19:59.921Z,13.37
2018-09-27T06:22:28.207Z,13.27
2018-09-27T06:24:56.490Z,8.60
2018-09-27T06:27:24.806Z,8.77
2018-09-27T06:29:53.190Z,8.93
2018-09-27T06:32:21.676Z,11.13
2018-09-27T06:34:50.006Z,8.80
2018-09-27T06:37:18.366Z,11.87
2018-09-27T06:39:46.683Z,9.27
2018-09-27T06:42:14.993Z,16.50
2018-09-27T06:44:43.391Z,9.40
2018-09-27T06:47:11.715Z,10.27
2018-09-27T06:49:40.085Z,9.70
2018-09-27T06:52:08.397Z,11.70
2018-09-27T06:54:36.709Z,9.77
2018-09-27T06:57:05.036Z,7.47
2018-09-27T06:59:33.363Z,10.77
2018-09-27T07:02:01.639Z,9.43
2018-09-27T07:04:29.919Z,9.30
2018-09-27T07:06:58.194Z,9.43
2018-09-27T07:09:26.463Z,13.43
2018-09-27T07:11:54.838Z,8.63
2018-09-27T07:14:23.252Z,10.23
2018-09-27T07:16:51.541Z,12.33
2018-09-27T07:19:19.877Z,12.57
2018-09-27T07:21:48.246Z,9.67
2018-09-27T07:24:16.542Z,12.40
2018-09-27T07:26:45.015Z,14.70
2018-09-27T07:29:13.218Z,9.03
2018-09-27T07:31:42.159Z,10.03
2018-09-27T07:34:10.563Z,9.53
2018-09-27T07:36:38.889Z,10.40
2018-09-27T07:39:08.970Z,10.83
2018-09-27T07:41:37.550Z,11.40
2018-09-27T07:44:05.838Z,9.90
2018-09-27T07:46:34.155Z,8.63
2018-09-27T07:49:02.480Z,14.80
2018-09-27T07:51:30.779Z,8.73
2018-09-27T07:53:59.074Z,11.27
2018-09-27T07:56:27.368Z,7.77
2018-09-27T07:58:55.681Z,13.23
2018-09-27T08:01:24.104Z,10.93
2018-09-27T08:03:52.402Z,9.50
2018-09-27T08:06:20.719Z,12.10
2018-09-27T08:08:49.011Z,10.30
2018-09-27T08:11:17.474Z,10.47
2018-09-27T08:13:45.622Z,10.20
2018-09-27T08:16:13.897Z,9.90
2018-09-27T08:18:42.337Z,10.50
2018-09-27T08:21:10.763Z,10.77
2018-09-27T08:23:38.964Z,8.40
2018-09-27T08:26:07.257Z,13.43
2018-09-27T08:28:35.534Z,13.93
2018-09-27T08:31:03.863Z,10.50
2018-09-27T08:33:32.114Z,11.77
2018-09-27T08:36:00.425Z,10.97
2018-09-27T08:38:28.775Z,9.17
2018-09-27T08:40:57.015Z,11.53
2018-09-27T08:43:25.313Z,11.77
2018-09-27T08:45:53.635Z,11.70
2018-09-27T08:48:21.889Z,11.03
2018-09-27T08:50:50.188Z,8.57
2018-09-27T08:53:18.502Z,12.70
2018-09-27T08:55:46.970Z,8.03
2018-09-27T08:58:15.146Z,8.20
2018-09-27T09:00:43.446Z,11.63
2018-09-27T09:03:11.810Z,15.73
2018-09-27T09:05:40.213Z,12.70
2018-09-27T09:08:08.514Z,11.17
2018-09-27T09:10:36.850Z,9.53
2018-09-27T09:13:05.123Z,11.63
2018-09-27T09:15:33.514Z,10.00
2018-09-27T09:18:01.744Z,10.87
2018-09-27T09:20:30.046Z,10.77
2018-09-27T09:22:58.311Z,10.93
2018-09-27T09:25:26.629Z,7.97
2018-09-27T09:27:54.900Z,12.17
2018-09-27T09:30:23.187Z,11.57
2018-09-27T09:32:51.548Z,26.47
2018-09-27T09:35:19.842Z,14.33
2018-09-27T09:37:48.154Z,13.30
2018-09-27T09:40:16.467Z,11.43
2018-09-27T09:42:44.730Z,15.27
2018-09-27T09:45:13.280Z,17.80
2018-09-27T09:47:41.599Z,14.27
2018-09-27T09:50:09.928Z,14.47
2018-09-27T09:52:38.385Z,14.73
2018-09-27T09:55:06.900Z,15.87
2018-09-27T09:57:35.177Z,11.47
2018-09-27T10:00:03.502Z,13.13
2018-09-27T10:02:31.830Z,17.53
2018-09-27T10:05:00.138Z,13.30
2018-09-27T10:07:28.415Z,10.47
2018-09-27T10:09:56.758Z,13.10
2018-09-27T10:12:25.063Z,13.93
2018-09-27T10:14:53.381Z,13.00
2018-09-27T10:17:21.689Z,12.27
2018-09-27T10:19:49.961Z,11.97
2018-09-27T10:22:18.256Z,13.90
2018-09-27T10:24:46.519Z,16.33
2018-09-27T10:27:14.826Z,15.90
2018-09-27T10:29:43.154Z,12.60
2018-09-27T10:32:11.542Z,20.47
2018-09-27T10:34:39.879Z,11.50
2018-09-27T10:37:08.134Z,15.17
2018-09-27T10:39:36.426Z,12.73
2018-09-27T10:42:04.729Z,17.37
2018-09-27T10:44:32.986Z,15.60
2018-09-27T10:47:01.514Z,13.87
2018-09-27T10:49:29.830Z,11.67
2018-09-27T10:51:58.139Z,16.57
2018-09-27T10:54:26.457Z,13.77
2018-09-27T10:56:54.764Z,15.13
2018-09-27T10:59:23.062Z,14.57
2018-09-27T11:01:51.338Z,17.13
2018-09-27T11:04:19.611Z,14.00
2018-09-27T11:06:47.939Z,14.97
2018-09-27T11:09:16.228Z,14.33
2018-09-27T11:11:44.595Z,19.40
2018-09-27T11:14:12.982Z,16.90
2018-09-27T11:16:41.330Z,19.93
2018-09-27T11:19:09.632Z,17.67
2018-09-27T11:21:38.046Z,15.67
2018-09-27T11:24:06.345Z,14.80
2018-09-27T11:26:34.634Z,16.40
2018-09-27T11:29:08.382Z,15.00
2018-09-27T11:31:41.854Z,17.83
2018-09-27T11:34:10.173Z,20.87
2018-09-27T11:36:38.503Z,15.47
2018-09-27T11:39:08.362Z,17.53
2018-09-27T11:41:36.654Z,12.50
2018-09-27T11:44:05.081Z,19.67
2018-09-27T11:46:33.394Z,15.63
2018-09-27T11:49:01.788Z,17.43
2018-09-27T11:51:29.969Z,17.70
2018-09-27T11:53:58.240Z,15.13
2018-09-27T11:56:26.595Z,19.17
2018-09-27T11:58:54.928Z,16.03
2018-09-27T12:01:23.215Z,20.00
2018-09-27T12:03:51.528Z,16.43
2018-09-27T12:06:19.811Z,21.03
2018-09-27T12:08:48.114Z,18.00
2018-09-27T12:11:16.568Z,16.73
2018-09-27T12:13:45.684Z,22.67
2018-09-27T12:16:14.600Z,18.77
2018-09-27T12:18:42.977Z,14.10
2018-09-27T12:21:11.726Z,14.33
2018-09-27T12:23:40.043Z,19.77
2018-09-27T12:26:08.710Z,18.80
2018-09-27T12:28:37.167Z,17.03
2018-09-27T12:31:05.619Z,17.57
2018-09-27T12:33:33.898Z,17.43
2018-09-27T12:36:02.218Z,20.00
2018-09-27T12:38:30.585Z,13.70
2018-09-27T12:40:58.814Z,13.57
2018-09-27T12:43:27.159Z,16.07
2018-09-27T12:45:55.495Z,15.90
2018-09-27T12:48:23.802Z,15.60
2018-09-27T12:50:52.151Z,14.77
2018-09-27T12:53:20.397Z,14.03
2018-09-27T12:55:48.723Z,14.70
2018-09-27T12:58:17.046Z,15.10
2018-09-27T13:00:45.334Z,12.87
2018-09-27T13:03:13.626Z,15.17
2018-09-27T13:05:41.891Z,8.57
2018-09-27T13:08:10.224Z,11.53
2018-09-27T13:10:38.512Z,16.80
2018-09-27T13:13:06.903Z,13.63
2018-09-27T13:15:35.084Z,10.13
2018-09-27T13:18:03.402Z,11.37
2018-09-27T13:20:31.691Z,16.63
2018-09-27T13:23:00.039Z,11.00
2018-09-27T13:25:28.490Z,11.63
2018-09-27T13:27:56.715Z,11.63
2018-09-27T13:30:24.983Z,14.07
2018-09-27T13:32:53.335Z,11.87
2018-09-27T13:35:21.582Z,11.13
2018-09-27T13:37:49.873Z,7.07
2018-09-27T13:40:18.159Z,12.23
2018-09-27T13:42:46.489Z,9.80
2018-09-27T13:45:14.757Z,14.67
2018-09-27T13:47:43.019Z,13.63
2018-09-27T13:50:11.297Z,7.47
2018-09-27T13:52:39.629Z,9.17
2018-09-27T13:55:07.964Z,11.20
2018-09-27T13:57:36.206Z,10.37
2018-09-27T14:00:04.586Z,9.63
2018-09-27T14:02:32.874Z,14.47
2018-09-27T14:05:01.186Z,9.07
2018-09-27T14:07:29.454Z,7.07
2018-09-27T14:09:57.737Z,10.33
2018-09-27T14:12:26.024Z,7.57
2018-09-27T14:14:54.329Z,6.17
2018-09-27T14:17:22.607Z,9.87
2018-09-27T14:19:50.905Z,5.27
2018-09-27T14:22:19.227Z,9.73
2018-09-27T14:24:47.551Z,7.90
2018-09-27T14:27:15.818Z,5.97
2018-09-27T14:29:44.106Z,9.07
2018-09-27T14:32:12.390Z,8.20
2018-09-27T14:34:40.708Z,9.87
2018-09-27T14:37:08.976Z,6.00
2018-09-27T14:39:37.267Z,7.60
2018-09-27T14:42:05.566Z,5.87
2018-09-27T14:44:33.890Z,7.47
2018-09-27T14:47:02.172Z,9.33
2018-09-27T14:49:30.462Z,6.40
2018-09-27T14:51:58.726Z,7.57
2018-09-27T14:54:27.008Z,5.80
2018-09-27T14:56:55.309Z,8.90
2018-09-27T14:59:23.602Z,9.83
2018-09-27T15:01:51.892Z,7.03
2018-09-27T15:04:20.168Z,8.53
2018-09-27T15:06:48.474Z,6.87
2018-09-27T15:09:16.788Z,8.63
2018-09-27T15:11:45.043Z,10.23
2018-09-27T15:14:13.461Z,9.63
2018-09-27T15:16:41.779Z,6.13
2018-09-27T15:19:10.083Z,12.23
2018-09-27T15:21:38.370Z,5.43
2018-09-27T15:24:07.348Z,10.67
2018-09-27T15:26:35.640Z,5.67
2018-09-27T15:29:03.914Z,5.10
2018-09-27T15:31:32.272Z,7.93
2018-09-27T15:34:00.759Z,4.40
2018-09-27T15:36:29.149Z,7.23
2018-09-27T15:38:57.424Z,5.93
2018-09-27T15:41:25.699Z,6.50
2018-09-27T15:43:53.986Z,6.67
2018-09-27T15:46:22.343Z,11.80
2018-09-27T15:48:50.627Z,5.70
2018-09-27T15:51:19.016Z,4.43
2018-09-27T15:53:47.266Z,9.53
2018-09-27T15:56:15.660Z,5.67
2018-09-27T15:58:43.995Z,9.40
2018-09-27T16:01:12.257Z,9.07
2018-09-27T16:03:40.538Z,8.63
2018-09-27T16:06:08.872Z,8.33
2018-09-27T16:08:37.633Z,10.53
2018-09-27T16:11:06.141Z,6.20
2018-09-27T16:13:34.397Z,6.37
2018-09-27T16:16:02.702Z,10.23
2018-09-27T16:18:31.114Z,8.57
2018-09-27T16:20:59.417Z,5.20
2018-09-27T16:23:27.742Z,7.03
2018-09-27T16:25:56.022Z,6.73
2018-09-27T16:28:24.298Z,6.13
2018-09-27T16:30:52.701Z,11.20
2018-09-27T16:33:21.099Z,11.17
2018-09-27T16:35:49.426Z,8.23
2018-09-27T16:38:17.714Z,8.10
2018-09-27T16:40:46.088Z,9.37
2018-09-27T16:43:14.365Z,11.53
2018-09-27T16:45:42.972Z,8.20
2018-09-27T16:48:11.431Z,9.77
2018-09-27T16:50:40.026Z,11.27
2018-09-27T16:53:08.509Z,8.80
2018-09-27T16:55:36.783Z,5.90
2018-09-27T16:58:05.072Z,9.33
2018-09-27T17:00:33.378Z,6.87
2018-09-27T17:03:01.655Z,10.20
2018-09-27T17:05:29.984Z,8.57
2018-09-27T17:07:58.258Z,6.17
2018-09-27T17:10:26.562Z,10.00
2018-09-27T17:12:54.951Z,6.90
2018-09-27T17:15:23.228Z,8.10
2018-09-27T17:17:51.540Z,11.57
2018-09-27T17:20:19.818Z,6.37
2018-09-27T17:22:48.090Z,10.50
2018-09-27T17:25:16.370Z,12.80
2018-09-27T17:27:44.898Z,10.40
2018-09-27T17:30:13.276Z,6.80
2018-09-27T17:32:41.557Z,10.13
2018-09-27T17:35:09.936Z,12.07
2018-09-27T17:37:38.229Z,7.60
2018-09-27T17:40:06.961Z,23.80
2018-09-27T17:42:35.265Z,10.53
2018-09-27T17:45:03.656Z,11.60
2018-09-27T17:47:31.970Z,9.57
2018-09-27T17:50:00.287Z,9.23
2018-09-27T17:52:28.585Z,6.93
2018-09-27T17:54:56.933Z,6.33
2018-09-27T17:57:25.195Z,6.03
2018-09-27T17:59:54.606Z,9.93
2018-09-27T18:02:24.041Z,8.27
2018-09-27T18:04:52.420Z,7.40
2018-09-27T18:07:20.903Z,8.50
2018-09-27T18:09:49.293Z,9.17
2018-09-27T18:12:17.617Z,7.83
2018-09-27T18:14:45.942Z,8.20
2018-09-27T18:17:14.233Z,10.60
2018-09-27T18:19:42.554Z,8.20
2018-09-27T18:22:10.825Z,8.50
2018-09-27T18:24:39.110Z,9.37
2018-09-27T18:27:07.447Z,10.63
2018-09-27T18:29:35.726Z,10.30
2018-09-27T18:32:04.024Z,9.67
2018-09-27T18:34:32.395Z,8.13
2018-09-27T18:37:00.635Z,9.53
2018-09-27T18:39:28.910Z,14.83
2018-09-27T18:41:57.302Z,10.80
2018-09-27T18:44:25.572Z,8.47
2018-09-27T18:46:53.863Z,8.83
2018-09-27T18:49:22.255Z,11.47
2018-09-27T18:51:50.632Z,11.23
2018-09-27T18:54:19.599Z,11.43
2018-09-27T18:56:48.107Z,11.23
2018-09-27T18:59:16.524Z,16.43
2018-09-27T19:01:45.906Z,17.03
2018-09-27T19:04:14.346Z,17.40
2018-09-27T19:06:42.658Z,12.03
2018-09-27T19:09:11.131Z,12.83
2018-09-27T19:11:39.619Z,11.50
2018-09-27T19:14:08.015Z,10.03
2018-09-27T19:16:36.309Z,13.83
2018-09-27T19:19:04.734Z,14.63
2018-09-27T19:21:33.062Z,14.20
2018-09-27T19:24:01.531Z,11.57
2018-09-27T19:26:29.849Z,9.40
2018-09-27T19:28:58.194Z,14.93
2018-09-27T19:31:26.566Z,9.23
2018-09-27T19:33:54.990Z,17.77
2018-09-27T19:36:23.326Z,11.07
2018-09-27T19:38:51.701Z,13.23
2018-09-27T19:41:19.970Z,16.07
2018-09-27T19:43:48.266Z,10.20
2018-09-27T19:46:16.677Z,10.17
2018-09-27T19:48:44.976Z,11.03
2018-09-27T19:51:13.397Z,15.47
2018-09-27T19:53:41.704Z,12.90
2018-09-27T19:56:10.432Z,9.53
2018-09-27T19:58:38.811Z,13.50
2018-09-27T20:01:07.105Z,8.57
2018-09-27T20:03:35.491Z,12.33
2018-09-27T20:06:03.818Z,11.63
2018-09-27T20:08:32.205Z,10.43
2018-09-27T20:11:00.607Z,10.90
2018-09-27T20:13:28.907Z,8.47
2018-09-27T20:15:57.336Z,9.40
2018-09-27T20:18:25.680Z,11.43
2018-09-27T20:20:53.983Z,14.90
2018-09-27T20:23:22.301Z,12.30
2018-09-27T20:25:50.714Z,13.53
2018-09-27T20:28:19.174Z,11.17
2018-09-27T20:30:47.571Z,13.90
2018-09-27T20:33:16.026Z,11.23
2018-09-27T20:35:44.449Z,12.27
2018-09-27T20:38:12.759Z,9.17
2018-09-27T20:40:41.279Z,11.37
2018-09-27T20:43:09.593Z,10.63
2018-09-27T20:45:37.863Z,9.73
2018-09-27T20:48:06.245Z,14.60
2018-09-27T20:50:34.610Z,13.57
2018-09-27T20:53:03.029Z,12.23
2018-09-27T20:55:31.341Z,14.67
2018-09-27T20:57:59.655Z,15.77
2018-09-27T21:00:28.027Z,12.43
2018-09-27T21:02:56.434Z,14.07
2018-09-27T21:05:24.787Z,11.23
2018-09-27T21:07:53.078Z,11.70
2018-09-27T21:10:21.360Z,13.30
2018-09-27T21:12:49.734Z,14.60
2018-09-27T21:15:18.100Z,13.57
2018-09-27T21:17:46.399Z,11.07
2018-09-27T21:20:14.674Z,14.30
2018-09-27T21:22:42.938Z,9.63
2018-09-27T21:25:11.214Z,11.23
2018-09-27T21:27:39.516Z,11.57
2018-09-27T21:30:07.818Z,12.90
2018-09-27T21:32:36.146Z,11.30
2018-09-27T21:35:04.455Z,12.17
2018-09-27T21:37:32.722Z,10.53
2018-09-27T21:40:00.975Z,11.57
2018-09-27T21:42:29.390Z,10.50
2018-09-27T21:44:57.770Z,10.43
2018-09-27T21:47:26.091Z,16.47
2018-09-27T21:49:54.381Z,15.60
2018-09-27T21:52:22.774Z,14.93
2018-09-27T21:54:51.187Z,15.40
2018-09-27T21:57:19.568Z,11.17
2018-09-27T21:59:47.833Z,11.37
2018-09-27T22:02:16.302Z,9.87
2018-09-27T22:04:44.686Z,9.77
2018-09-27T22:07:12.970Z,11.97
2018-09-27T22:09:41.252Z,10.70
2018-09-27T22:12:09.526Z,18.53
2018-09-27T22:14:37.851Z,11.73
2018-09-27T22:17:06.267Z,11.83
2018-09-27T22:19:34.549Z,13.73
2018-09-27T22:22:02.926Z,13.33
2018-09-27T22:24:31.186Z,11.13
2018-09-27T22:26:59.484Z,16.47
2018-09-27T22:29:27.737Z,12.63
2018-09-27T22:31:56.139Z,11.60
2018-09-27T22:34:24.410Z,10.23
2018-09-27T22:36:52.721Z,15.80
2018-09-27T22:39:21.173Z,11.83
2018-09-27T22:41:49.450Z,14.13
2018-09-27T22:44:17.747Z,12.43
2018-09-27T22:46:46.110Z,11.23
2018-09-27T22:49:14.482Z,11.53
2018-09-27T22:51:42.782Z,14.50
2018-09-27T22:54:11.146Z,13.47
2018-09-27T22:56:40.234Z,11.13
2018-09-27T22:59:08.566Z,13.10
2018-09-27T23:01:36.848Z,13.00
2018-09-27T23:04:05.302Z,15.83
2018-09-27T23:06:33.620Z,14.57
2018-09-27T23:09:01.941Z,13.07
2018-09-27T23:11:32.258Z,13.57
2018-09-27T23:14:01.881Z,13.03
2018-09-27T23:16:30.264Z,12.00
2018-09-27T23:18:58.654Z,10.93
2018-09-27T23:21:27.322Z,10.67
2018-09-27T23:23:55.696Z,11.87
2018-09-27T23:26:24.016Z,13.90
2018-09-27T23:28:52.358Z,12.03
2018-09-27T23:31:20.642Z,9.70
2018-09-27T23:33:48.956Z,10.13
2018-09-27T23:36:17.266Z,16.80
2018-09-27T23:38:45.677Z,10.70
2018-09-27T23:41:14.055Z,17.30
2018-09-27T23:43:42.385Z,10.67
2018-09-27T23:46:11.228Z,10.83
2018-09-27T23:48:39.616Z,12.37
2018-09-27T23:51:08.187Z,11.27
2018-09-27T23:53:36.770Z,14.00
2018-09-27T23:56:05.250Z,15.57
2018-09-27T23:58:33.576Z,12.53
